This is the latest recevied weather packets stored in our database for station/object WA1TYB-13. If no packets are shown the sender has not sent any weather packets the latest 10 day(s).
| Time | Temp. | Humidity | Pressure | Rain* | Wind** | Luminosity | Snow |
|---|---|---|---|---|---|---|---|
| 1777798061 | 7.78° C | 67% | 1017.7 hPa | 0 mm | - | 0 W/m² | - |
| 1777797760 | 7.78° C | 66% | 1017.6 hPa | 0 mm | - | 0 W/m² | - |
| 1777797457 | 7.78° C | 66% | 1017.9 hPa | 0 mm | - | 0 W/m² | - |
| 1777797154 | 7.78° C | 66% | 1017.9 hPa | 0 mm | - | 0 W/m² | - |
| 1777796850 | 8.33° C | 67% | 1018.2 hPa | 0 mm | - | 0 W/m² | - |
| 1777796547 | 8.33° C | 67% | 1018.2 hPa | 0 mm | - | 0 W/m² | - |
| 1777796243 | 7.78° C | 69% | 1018 hPa | 0 mm | - | 0 W/m² | - |
| 1777795940 | 7.78° C | 69% | 1018 hPa | 0 mm | - | 0 W/m² | - |
| 1777795635 | 8.33° C | 67% | 1017.8 hPa | 0 mm | - | 0 W/m² | - |
| 1777795333 | 8.89° C | 65% | 1017.8 hPa | 0 mm | - | 0 W/m² | - |
| 1777795029 | 8.89° C | 64% | 1017.7 hPa | 0 mm | - | 0 W/m² | - |
| 1777794726 | 8.33° C | 66% | 1018.1 hPa | 0 mm | - | 0 W/m² | - |
| 1777794421 | 8.89° C | 66% | 1017.8 hPa | 0 mm | - | 0 W/m² | - |
| 1777794117 | 9.44° C | 65% | 1018 hPa | 0 mm | - | 0 W/m² | - |
| 1777793813 | 9.44° C | 62% | 1017.8 hPa | 0 mm | - | 0 W/m² | - |
| 1777793512 | 8.89° C | 63% | 1017.5 hPa | 0 mm | - | 0 W/m² | - |
| 1777793209 | 8.33° C | 67% | 1017.7 hPa | 0 mm | - | 0 W/m² | - |
| 1777792906 | 8.33° C | 67% | 1018.1 hPa | 0 mm | - | 0 W/m² | - |
| 1777792603 | 8.33° C | 67% | 1018.1 hPa | 0 mm | - | 0 W/m² | - |
| 1777792300 | 8.89° C | 66% | 1017.9 hPa | 0 mm | - | 0 W/m² | - |
| 1777791997 | 8.33° C | 66% | 1018 hPa | 0 mm | - | 0 W/m² | - |
| 1777791695 | 8.89° C | 66% | 1017.8 hPa | 0 mm | - | 0 W/m² | - |
| 1777791391 | 8.89° C | 66% | 1018.1 hPa | 0 mm | - | 0 W/m² | - |
| 1777791089 | 9.44° C | 64% | 1017.8 hPa | 0 mm | - | 0 W/m² | - |
| 1777790786 | 8.89° C | 63% | 1017.8 hPa | 0 mm | - | 0 W/m² | - |
* Rain latest hour (hover to see other rain measurements)
** Current wind speed in m/s (hover to see current wind gust speed)